Accueil
METAR-TAF:

METAR-TAF

Aéroports :

Asahikawa Air Base, Japon

latitude: 43-48N, longitude: 142-22E, altitude: 115 m

Observation

Le bulletin a été fait il y a 11 heures et 51 minutes, à 22:16 UTC
Vent 2 kt de sud
Température 10°C
Humidité 87%
Pression 1014 hPa
Visibilité 10 km ou plus
Quelques nuages à une hauteur de 300 ft
Nuages épars à une hauteur de 5000 ft

METAR: RJCA 152216Z 17002KT 9999 FEW003 SCT050 10/08 Q1014 RMK 1ST003 4CU050 A2995 W/E

Heure: 19:07 (10:07 UTC)


TAF: absent

Observations et prévisions météorologiques de plus de 4000 aéroports (messages METAR et TAF).

Les stations disponibles sont représentées par des disques jaunes et rouges sur la carte.

Passer la souris dessus pour voir le nom de la station.

Cliquer dessus pour voir les observations et prévisions météorologiques.

Pour changer de carte: cliquez sur les boutons verts avec une croix noire pour zoomer, sur le bouton vert avec un tiret pour effectuer un zoom arrière, ou sur les flèches vertes pour les cartes adjacentes.


METAR-TAF: